Time;durP1;ratioP1;P1;durP2;ratioP2;P2;SDS_P1;SDS_P2;PMS_P1;PMS_P2;Temp;Humidity;BMP_temperature;BMP_pressure;BME280_temperature;BME280_humidity;BME280_pressure;Samples;Min_cycle;Max_cycle;Signal;HPM_P1;HPM_P2
2022/03/29 00:02:14;;;;;;;14.35;7.97;;;10.60;94.40;;;;;;5005396;28;20335;-71
2022/03/29 00:05:04;;;;;;;13.27;8.75;;;10.50;94.50;;;;;;5006530;28;20221;-69
2022/03/29 00:07:53;;;;;;;13.98;7.95;;;10.50;94.50;;;;;;5006627;28;20275;-73
2022/03/29 00:10:42;;;;;;;14.73;8.07;;;10.50;94.50;;;;;;5006628;28;20233;-72
2022/03/29 00:13:30;;;;;;;12.98;8.90;;;10.50;94.30;;;;;;4999861;28;20273;-72
2022/03/29 00:16:19;;;;;;;14.07;8.43;;;10.40;94.30;;;;;;5009450;28;20237;-75
2022/03/29 00:19:13;;;;;;;15.23;8.25;;;10.40;94.50;;;;;;5005820;28;20233;-75
2022/03/29 00:22:07;;;;;;;13.95;8.60;;;10.50;94.30;;;;;;5016957;28;20221;-76
2022/03/29 00:24:55;;;;;;;13.23;8.13;;;10.40;94.40;;;;;;5012099;28;20229;-76
2022/03/29 00:27:44;;;;;;;16.10;9.15;;;10.30;94.60;;;;;;5010264;28;20224;-76
2022/03/29 00:30:32;;;;;;;12.93;8.35;;;10.30;94.70;;;;;;5007300;28;20285;-76
2022/03/29 00:33:21;;;;;;;16.55;8.10;;;10.40;94.80;;;;;;5007175;28;20213;-76
2022/03/29 00:36:10;;;;;;;13.23;8.50;;;10.30;94.80;;;;;;5012813;28;20676;-72
2022/03/29 00:39:00;;;;;;;19.95;9.27;;;10.20;95.40;;;;;;5004459;28;21624;-72
2022/03/29 00:41:49;;;;;;;15.67;9.03;;;10.10;95.80;;;;;;5012210;28;20229;-73
2022/03/29 00:44:38;;;;;;;14.10;9.13;;;10.10;95.70;;;;;;5015749;28;20259;-72
2022/03/29 00:47:27;;;;;;;14.30;9.03;;;10.10;95.90;;;;;;5013845;28;22829;-77
2022/03/29 00:50:16;;;;;;;17.40;9.37;;;10.10;96.10;;;;;;5015969;28;20236;-74
2022/03/29 00:53:05;;;;;;;16.70;8.90;;;10.00;96.60;;;;;;5014379;28;20227;-73
2022/03/29 00:55:59;;;;;;;20.03;10.33;;;10.00;96.60;;;;;;5014189;28;20284;-72
2022/03/29 00:58:49;;;;;;;17.93;10.93;;;9.90;97.00;;;;;;5006335;28;20366;-74
2022/03/29 01:01:38;;;;;;;19.13;11.27;;;9.90;97.10;;;;;;5010548;28;20555;-72
2022/03/29 01:04:27;;;;;;;17.90;12.03;;;9.90;97.30;;;;;;5008153;28;20221;-73
2022/03/29 01:07:15;;;;;;;17.83;11.23;;;9.90;97.60;;;;;;5008241;28;20237;-72
2022/03/29 01:10:08;;;;;;;17.17;11.37;;;9.80;97.80;;;;;;5005276;28;20218;-73
2022/03/29 01:12:58;;;;;;;20.23;11.43;;;9.80;98.10;;;;;;5009937;28;20224;-73
2022/03/29 01:15:50;;;;;;;16.13;10.40;;;9.90;98.20;;;;;;5004766;28;20238;-73
2022/03/29 01:18:39;;;;;;;18.23;10.93;;;9.90;98.40;;;;;;5012060;28;20255;-78
2022/03/29 01:21:33;;;;;;;17.17;10.77;;;9.90;98.60;;;;;;5009892;28;20229;-78
2022/03/29 01:24:24;;;;;;;17.93;10.50;;;9.70;99.10;;;;;;5010323;28;20237;-80
2022/03/29 01:27:13;;;;;;;16.93;10.00;;;9.60;99.90;;;;;;5009990;28;20225;-74
2022/03/29 01:30:03;;;;;;;18.83;10.07;;;9.60;99.90;;;;;;5006188;28;20599;-74
2022/03/29 01:32:53;;;;;;;18.43;9.80;;;9.80;99.90;;;;;;5011618;28;20232;-77
2022/03/29 01:35:43;;;;;;;18.13;9.73;;;9.80;99.90;;;;;;5022287;28;20212;-75
2022/03/29 01:38:32;;;;;;;16.27;9.33;;;9.60;99.90;;;;;;5012015;28;20226;-74
2022/03/29 01:41:26;;;;;;;16.93;10.20;;;9.40;99.90;;;;;;5007720;28;20236;-73
2022/03/29 01:44:15;;;;;;;16.03;10.57;;;9.40;99.90;;;;;;5008006;28;20224;-74
2022/03/29 01:47:04;;;;;;;17.10;10.87;;;9.40;99.90;;;;;;5007976;28;20231;-73
2022/03/29 01:49:53;;;;;;;17.33;11.13;;;9.50;99.90;;;;;;5009029;28;20224;-73
2022/03/29 01:52:45;;;;;;;18.30;11.33;;;9.40;99.90;;;;;;4988680;28;20232;-73
2022/03/29 01:55:33;;;;;;;17.23;11.73;;;9.40;99.90;;;;;;5010743;28;20220;-74
2022/03/29 01:58:24;;;;;;;23.90;12.87;;;9.40;99.90;;;;;;5005479;28;20920;-74
2022/03/29 02:01:13;;;;;;;22.70;13.53;;;9.40;99.90;;;;;;5009075;28;20232;-74
2022/03/29 02:04:02;;;;;;;20.13;12.47;;;9.40;99.90;;;;;;5011019;28;20227;-75
2022/03/29 02:06:51;;;;;;;21.43;12.30;;;9.50;99.90;;;;;;5011377;28;20280;-74
2022/03/29 02:09:43;;;;;;;21.07;12.73;;;9.40;99.90;;;;;;5011835;28;20227;-75
2022/03/29 02:12:33;;;;;;;19.10;11.03;;;9.30;99.90;;;;;;5011369;28;20217;-74
2022/03/29 02:15:26;;;;;;;16.37;11.03;;;9.20;99.90;;;;;;5014281;28;20240;-75
2022/03/29 02:18:15;;;;;;;19.17;11.07;;;9.20;99.90;;;;;;5011135;28;20227;-73
2022/03/29 02:21:04;;;;;;;17.03;10.47;;;9.10;99.90;;;;;;5010833;28;20225;-75
2022/03/29 02:23:53;;;;;;;17.37;10.10;;;9.10;99.90;;;;;;5011394;28;20235;-75
2022/03/29 02:26:41;;;;;;;19.97;10.43;;;9.10;99.90;;;;;;5012831;28;20259;-75
2022/03/29 02:29:30;;;;;;;17.40;10.97;;;9.10;99.90;;;;;;5007468;28;20219;-75
2022/03/29 02:32:20;;;;;;;19.50;10.73;;;9.00;99.90;;;;;;5007581;28;20295;-74
2022/03/29 02:35:09;;;;;;;16.90;9.90;;;9.00;99.90;;;;;;5012039;28;20248;-72
2022/03/29 02:37:59;;;;;;;16.70;9.77;;;8.90;99.90;;;;;;5010654;28;20227;-71
2022/03/29 02:40:48;;;;;;;16.97;10.20;;;9.00;99.90;;;;;;5014908;28;20482;-73
2022/03/29 02:43:40;;;;;;;15.50;9.50;;;9.00;99.90;;;;;;5009872;28;20554;-72
2022/03/29 02:46:29;;;;;;;15.47;9.40;;;9.00;99.90;;;;;;5005810;28;20235;-71
2022/03/29 02:49:23;;;;;;;17.33;9.83;;;8.80;99.90;;;;;;5011019;28;20247;-71
2022/03/29 02:52:11;;;;;;;16.60;9.50;;;8.90;99.90;;;;;;5009027;28;20243;-70
2022/03/29 02:55:00;;;;;;;18.70;9.90;;;8.90;99.90;;;;;;5008408;28;20234;-72
2022/03/29 02:57:49;;;;;;;14.93;9.10;;;8.80;99.90;;;;;;5007488;28;20224;-72
2022/03/29 03:00:38;;;;;;;14.80;8.67;;;8.80;99.90;;;;;;5007765;28;20239;-73
2022/03/29 03:03:29;;;;;;;15.53;9.83;;;8.60;99.90;;;;;;5006850;28;20215;-71
2022/03/29 03:06:19;;;;;;;17.57;10.03;;;8.60;99.90;;;;;;5005054;28;20785;-71
2022/03/29 03:09:08;;;;;;;18.50;9.67;;;8.50;99.90;;;;;;5011405;28;20229;-71
2022/03/29 03:11:56;;;;;;;18.40;10.33;;;8.50;99.90;;;;;;5014487;28;20230;-72
2022/03/29 03:14:45;;;;;;;17.87;10.70;;;8.50;99.90;;;;;;5011893;28;20224;-73
2022/03/29 03:17:34;;;;;;;16.13;10.87;;;8.50;99.90;;;;;;5021246;28;20230;-74
2022/03/29 03:20:24;;;;;;;17.90;10.30;;;8.50;99.90;;;;;;5010548;28;20230;-73
2022/03/29 03:23:14;;;;;;;20.87;10.90;;;8.50;99.90;;;;;;5027538;28;20309;-74
2022/03/29 03:26:02;;;;;;;19.87;12.73;;;8.60;99.90;;;;;;5018622;28;20221;-74
2022/03/29 03:28:51;;;;;;;21.63;12.20;;;8.60;99.90;;;;;;5031049;28;20236;-74
2022/03/29 03:31:40;;;;;;;19.10;11.80;;;8.50;99.90;;;;;;5014960;28;21560;-74
2022/03/29 03:34:29;;;;;;;19.67;11.63;;;8.70;99.90;;;;;;5017472;28;20227;-74
2022/03/29 03:37:17;;;;;;;18.03;11.90;;;8.70;99.90;;;;;;5027263;28;20987;-74
2022/03/29 03:40:12;;;;;;;19.97;11.93;;;8.70;99.90;;;;;;5018320;28;20911;-74
2022/03/29 03:43:02;;;;;;;20.17;12.13;;;8.80;99.90;;;;;;5025828;28;20219;-72
2022/03/29 03:45:53;;;;;;;18.57;10.90;;;8.60;99.90;;;;;;5012062;28;21847;-72
2022/03/29 03:48:42;;;;;;;20.83;11.60;;;8.40;99.90;;;;;;5026101;28;21019;-75
2022/03/29 03:51:30;;;;;;;21.20;11.23;;;8.40;99.90;;;;;;5026564;28;20763;-75
2022/03/29 03:54:19;;;;;;;17.97;12.07;;;8.30;99.90;;;;;;5018137;28;20225;-75
2022/03/29 03:57:09;;;;;;;20.97;12.17;;;8.20;99.90;;;;;;5017900;28;20234;-72
2022/03/29 03:59:58;;;;;;;19.07;12.33;;;8.20;99.90;;;;;;5018065;28;20270;-72
2022/03/29 04:02:49;;;;;;;22.23;12.13;;;8.20;99.90;;;;;;5007042;28;20222;-74
2022/03/29 04:05:38;;;;;;;20.03;11.97;;;8.20;99.90;;;;;;5009483;28;20214;-74
2022/03/29 04:08:27;;;;;;;18.93;11.33;;;8.20;99.90;;;;;;5022728;28;20221;-74
2022/03/29 04:11:15;;;;;;;19.67;12.17;;;8.10;99.90;;;;;;5022870;28;20214;-74
2022/03/29 04:14:06;;;;;;;22.30;12.53;;;8.00;99.90;;;;;;5023070;28;20240;-75
2022/03/29 04:16:54;;;;;;;22.00;12.63;;;7.90;99.90;;;;;;5023074;28;20333;-73
2022/03/29 04:19:43;;;;;;;24.33;13.07;;;7.80;99.90;;;;;;5020952;28;20222;-74
2022/03/29 04:22:32;;;;;;;19.33;12.03;;;7.80;99.90;;;;;;5022681;28;20222;-73
2022/03/29 04:25:21;;;;;;;28.63;11.90;;;7.80;99.90;;;;;;5024386;28;20314;-74
2022/03/29 04:28:09;;;;;;;21.13;11.97;;;7.90;99.90;;;;;;5025250;28;20229;-75
2022/03/29 04:31:02;;;;;;;18.77;11.93;;;8.00;99.90;;;;;;5012196;28;20647;-76
2022/03/29 04:33:51;;;;;;;19.73;11.93;;;8.00;99.90;;;;;;5024332;28;20214;-75
2022/03/29 04:36:40;;;;;;;20.10;12.37;;;8.10;99.90;;;;;;5010971;28;20251;-73
2022/03/29 04:39:30;;;;;;;23.47;12.40;;;7.90;99.90;;;;;;5022880;28;20263;-73
2022/03/29 04:42:20;;;;;;;21.33;12.30;;;8.10;99.90;;;;;;5023788;28;20225;-73
2022/03/29 04:45:10;;;;;;;20.07;12.33;;;8.00;99.90;;;;;;5024905;28;20225;-72
2022/03/29 04:48:00;;;;;;;19.87;13.07;;;7.90;99.90;;;;;;5023409;28;20217;-73
2022/03/29 04:50:49;;;;;;;20.00;12.63;;;7.90;99.90;;;;;;5021045;28;20217;-73
2022/03/29 04:53:38;;;;;;;21.53;12.63;;;7.90;99.90;;;;;;5023628;28;20244;-73
2022/03/29 04:56:27;;;;;;;31.17;17.37;;;7.80;99.90;;;;;;5008184;28;20339;-73
2022/03/29 04:59:15;;;;;;;23.83;13.70;;;7.80;99.90;;;;;;5023072;28;20218;-73
2022/03/29 05:02:04;;;;;;;24.73;12.70;;;7.80;99.90;;;;;;5017564;28;21085;-73
2022/03/29 05:04:58;;;;;;;21.63;13.43;;;7.70;99.90;;;;;;5016105;28;20604;-75
2022/03/29 05:07:53;;;;;;;19.97;13.13;;;7.90;99.90;;;;;;5006782;28;20235;-74
2022/03/29 05:10:42;;;;;;;22.00;13.40;;;7.70;99.90;;;;;;5023434;28;20229;-74
2022/03/29 05:13:30;;;;;;;19.90;13.27;;;7.70;99.90;;;;;;5025204;28;20218;-74
2022/03/29 05:16:19;;;;;;;20.57;12.87;;;7.90;99.90;;;;;;5022235;28;20431;-74
2022/03/29 05:19:09;;;;;;;19.23;12.27;;;7.80;99.90;;;;;;5022408;28;20300;-72
2022/03/29 05:21:59;;;;;;;24.47;13.43;;;7.90;99.90;;;;;;5009601;28;20221;-83
2022/03/29 05:24:48;;;;;;;19.00;12.83;;;7.90;99.90;;;;;;5024143;28;21675;-75
2022/03/29 05:27:36;;;;;;;21.57;13.23;;;7.80;99.90;;;;;;5022471;28;20222;-74
2022/03/29 05:30:26;;;;;;;18.20;12.97;;;8.00;99.90;;;;;;5020890;28;20707;-71
2022/03/29 05:33:18;;;;;;;20.30;12.73;;;8.10;99.90;;;;;;5020521;28;20232;-73
2022/03/29 05:36:07;;;;;;;20.40;13.03;;;7.90;99.90;;;;;;5020850;28;20231;-81
2022/03/29 05:38:57;;;;;;;20.57;12.93;;;7.90;99.90;;;;;;5027419;28;20232;-75
2022/03/29 05:41:51;;;;;;;20.60;12.60;;;8.10;99.90;;;;;;5025627;28;20608;-85
2022/03/29 05:44:39;;;;;;;21.07;12.80;;;8.10;99.90;;;;;;5017054;28;20237;-76
2022/03/29 05:50:34;;;;;;;21.60;13.90;;;7.90;99.90;;;;;;5011728;28;20343;-76
2022/03/29 05:53:23;;;;;;;31.77;14.70;;;7.90;99.90;;;;;;5008511;28;20250;-77
2022/03/29 05:56:14;;;;;;;26.60;14.47;;;7.90;99.90;;;;;;5013452;28;20221;-76
2022/03/29 05:59:03;;;;;;;23.17;13.57;;;8.00;99.90;;;;;;5030697;28;20886;-74
2022/03/29 06:01:52;;;;;;;21.30;14.17;;;8.00;99.90;;;;;;5014725;28;20715;-81
2022/03/29 06:04:41;;;;;;;24.13;14.73;;;8.00;99.90;;;;;;5014316;28;20633;-79
2022/03/29 06:07:30;;;;;;;22.73;13.83;;;8.00;99.90;;;;;;5022122;28;20220;-80
2022/03/29 06:10:19;;;;;;;24.37;14.20;;;8.20;99.90;;;;;;5030169;28;20385;-79
2022/03/29 06:13:11;;;;;;;23.50;15.17;;;8.20;99.90;;;;;;5015609;28;20320;-79
2022/03/29 06:16:00;;;;;;;25.53;14.80;;;8.30;99.90;;;;;;5027245;28;20228;-76
2022/03/29 06:22:00;;;;;;;36.63;16.60;;;8.20;99.90;;;;;;5072248;27;20603;-79
2022/03/29 06:24:49;;;;;;;28.67;16.03;;;8.20;99.90;;;;;;5095625;27;20229;-70
2022/03/29 06:27:38;;;;;;;28.23;16.93;;;8.20;99.90;;;;;;5089655;27;20224;-80
2022/03/29 06:30:27;;;;;;;42.63;18.47;;;8.20;99.90;;;;;;5108143;27;20214;-80
2022/03/29 06:33:16;;;;;;;28.63;19.90;;;8.10;99.90;;;;;;5094429;27;20597;-80
2022/03/29 06:36:05;;;;;;;32.23;20.53;;;8.10;99.90;;;;;;5078470;27;20753;-80
2022/03/29 06:38:55;;;;;;;33.20;20.27;;;8.10;99.90;;;;;;5074139;27;20224;-79
2022/03/29 06:41:44;;;;;;;33.47;21.43;;;8.10;99.90;;;;;;5077406;28;20250;-80
2022/03/29 06:44:34;;;;;;;38.37;24.83;;;8.20;99.90;;;;;;5065693;27;20329;-80
2022/03/29 06:47:23;;;;;;;37.40;24.23;;;8.20;99.90;;;;;;5070740;28;20215;-81
2022/03/29 06:50:16;;;;;;;38.87;25.57;;;8.20;99.90;;;;;;5070736;27;20357;-79
2022/03/29 06:53:06;;;;;;;41.03;26.23;;;8.30;99.90;;;;;;5087814;27;20294;-79
2022/03/29 06:55:58;;;;;;;43.23;23.93;;;8.20;99.90;;;;;;5091039;27;20771;-81
2022/03/29 06:58:47;;;;;;;42.03;26.03;;;8.20;99.90;;;;;;5076536;28;20225;-80
2022/03/29 07:01:36;;;;;;;42.40;26.73;;;8.20;99.90;;;;;;5075213;27;20253;-81
2022/03/29 07:04:26;;;;;;;44.70;28.97;;;8.20;99.90;;;;;;5080625;27;20253;-80
2022/03/29 07:07:15;;;;;;;45.23;28.77;;;8.20;99.90;;;;;;5082989;27;20229;-80
2022/03/29 07:13:17;;;;;;;53.73;31.10;;;8.30;99.90;;;;;;5021780;27;20225;-79
2022/03/29 07:16:07;;;;;;;47.10;30.90;;;8.10;99.90;;;;;;5074988;28;20216;-82
2022/03/29 07:18:56;;;;;;;46.17;29.27;;;8.10;99.90;;;;;;5109931;27;20235;-80
2022/03/29 07:21:46;;;;;;;48.87;30.63;;;8.10;99.90;;;;;;5077679;28;20224;-81
2022/03/29 07:24:35;;;;;;;45.07;29.07;;;8.30;99.90;;;;;;5089190;28;20247;-80
2022/03/29 07:27:24;;;;;;;42.97;28.30;;;8.30;99.90;;;;;;5087927;28;20212;-80
2022/03/29 07:30:15;;;;;;;40.47;25.27;;;8.50;99.90;;;;;;5084943;28;20264;-80
2022/03/29 07:33:03;;;;;;;39.73;25.97;;;8.40;99.90;;;;;;5081748;28;20221;-82
2022/03/29 07:35:52;;;;;;;36.97;25.50;;;8.40;99.90;;;;;;5066087;28;20233;-80
2022/03/29 07:38:41;;;;;;;39.47;25.93;;;8.30;99.90;;;;;;5080713;28;20586;-81
2022/03/29 07:41:30;;;;;;;43.13;26.70;;;8.20;99.90;;;;;;5080738;28;20230;-81
2022/03/29 07:44:19;;;;;;;37.87;25.17;;;8.40;99.90;;;;;;5071248;28;20218;-80
2022/03/29 07:47:09;;;;;;;39.77;26.13;;;8.40;99.90;;;;;;5064135;28;20225;-77
2022/03/29 07:49:58;;;;;;;38.90;24.50;;;8.40;99.90;;;;;;5049241;28;20220;-80
2022/03/29 07:53:07;;;;;;;36.30;24.20;;;8.50;99.90;;;;;;5075305;28;20240;-82
2022/03/29 07:55:56;;;;;;;36.70;22.60;;;8.60;99.90;;;;;;5087853;28;20214;-79
2022/03/29 07:58:45;;;;;;;40.33;23.03;;;8.70;99.90;;;;;;5075434;28;20246;-80
2022/03/29 08:01:34;;;;;;;32.73;21.83;;;8.60;99.90;;;;;;5060282;28;20226;-81
2022/03/29 08:04:24;;;;;;;40.70;23.20;;;8.60;99.90;;;;;;5065929;28;20580;-79
2022/03/29 08:07:13;;;;;;;36.80;24.43;;;8.80;99.90;;;;;;5058637;28;20786;-81
2022/03/29 08:10:02;;;;;;;35.03;24.70;;;8.80;99.90;;;;;;5071950;28;20904;-81
2022/03/29 08:12:51;;;;;;;44.93;25.97;;;8.90;99.90;;;;;;5064129;28;20870;-81
2022/03/29 08:15:41;;;;;;;45.20;25.60;;;8.90;99.90;;;;;;5063103;28;20229;-81
2022/03/29 08:18:31;;;;;;;39.10;25.00;;;8.90;99.90;;;;;;5077295;28;20788;-81
2022/03/29 08:24:27;;;;;;;40.20;25.00;;;9.30;99.90;;;;;;5097843;28;20221;-81
2022/03/29 08:27:16;;;;;;;41.50;25.30;;;9.40;99.90;;;;;;5097617;28;20589;-80
2022/03/29 08:30:06;;;;;;;42.17;25.70;;;9.30;99.90;;;;;;5086808;28;20217;-80
2022/03/29 08:32:57;;;;;;;46.73;26.07;;;9.30;99.90;;;;;;5105044;28;20229;-80
2022/03/29 08:35:50;;;;;;;39.77;26.93;;;9.30;99.90;;;;;;5093507;28;20232;-80
2022/03/29 08:38:41;;;;;;;46.77;27.43;;;9.40;99.90;;;;;;5091628;28;20219;-80
2022/03/29 08:41:41;;;;;;;46.10;29.43;;;9.50;99.90;;;;;;5094106;28;20226;-80
2022/03/29 08:44:32;;;;;;;47.77;30.23;;;9.30;99.90;;;;;;5092692;27;20302;-81
2022/03/29 08:47:21;;;;;;;47.33;29.83;;;9.20;99.90;;;;;;5097491;28;21040;-81
2022/03/29 08:50:12;;;;;;;56.37;33.63;;;9.20;99.90;;;;;;5082736;27;20468;-83
2022/03/29 08:53:02;;;;;;;50.60;31.90;;;9.40;99.90;;;;;;5097130;28;20236;-80
2022/03/29 08:55:52;;;;;;;52.30;33.77;;;9.50;99.90;;;;;;5083884;28;20241;-81
2022/03/29 08:58:46;;;;;;;56.87;33.50;;;9.60;99.90;;;;;;5079461;28;20289;-80
2022/03/29 09:01:35;;;;;;;58.67;33.23;;;9.40;99.90;;;;;;5084470;28;20226;-81
2022/03/29 09:04:29;;;;;;;54.97;33.55;;;10.60;99.90;;;;;;5094342;28;20317;-80
2022/03/29 09:07:21;;;;;;;50.03;33.17;;;11.00;99.90;;;;;;5094692;27;20225;-81
2022/03/29 09:10:12;;;;;;;52.25;32.63;;;10.50;99.90;;;;;;5091564;28;20320;-80
2022/03/29 09:13:20;;;;;;;49.15;31.88;;;10.40;99.90;;;;;;5084974;28;20653;-82
2022/03/29 09:16:28;;;;;;;44.50;28.58;;;10.60;99.90;;;;;;5085656;28;20222;-80
2022/03/29 09:19:17;;;;;;;44.72;27.38;;;10.90;99.90;;;;;;5085635;27;20252;-81
2022/03/29 09:22:06;;;;;;;44.88;27.08;;;10.90;99.90;;;;;;5093813;28;20228;-81
2022/03/29 09:24:58;;;;;;;41.90;25.85;;;11.10;99.90;;;;;;5095562;28;21909;-81
2022/03/29 09:27:58;;;;;;;35.42;24.67;;;11.60;99.90;;;;;;5092700;28;20227;-80
2022/03/29 09:30:50;;;;;;;39.38;23.65;;;11.80;99.90;;;;;;5100426;27;20962;-81
2022/03/29 09:33:41;;;;;;;38.97;22.58;;;11.80;99.90;;;;;;5084586;28;20667;-80
2022/03/29 09:36:42;;;;;;;40.10;22.08;;;11.40;99.90;;;;;;5096148;28;20327;-80
2022/03/29 09:39:36;;;;;;;41.42;22.25;;;10.80;99.90;;;;;;5094812;28;20327;-79
2022/03/29 09:42:27;;;;;;;38.67;22.35;;;10.60;99.90;;;;;;5079885;28;20256;-79
2022/03/29 09:45:15;;;;;;;33.08;21.08;;;10.50;99.90;;;;;;5093777;27;20242;-80
2022/03/29 09:48:22;;;;;;;39.42;22.10;;;10.30;99.90;;;;;;5093798;28;20222;-80
2022/03/29 09:51:22;;;;;;;31.08;20.85;;;10.40;99.90;;;;;;5091206;28;20940;-81
2022/03/29 09:54:16;;;;;;;40.20;21.53;;;10.30;99.90;;;;;;5094699;28;20715;-79
2022/03/29 09:57:05;;;;;;;34.42;20.98;;;10.30;99.90;;;;;;5097187;28;20219;-79
2022/03/29 09:59:55;;;;;;;33.97;21.38;;;10.30;99.90;;;;;;5081291;28;20383;-66
2022/03/29 10:02:46;;;;;;;28.83;20.17;;;10.20;99.90;;;;;;5090109;28;20232;-74
2022/03/29 10:05:38;;;;;;;31.87;21.00;;;10.00;99.90;;;;;;5088528;28;20712;-75
2022/03/29 10:11:35;;;;;;;31.97;20.70;;;10.00;99.90;;;;;;5077763;28;20313;-81
2022/03/29 10:14:25;;;;;;;39.70;20.57;;;10.00;99.90;;;;;;5094362;28;20229;-77
2022/03/29 10:17:15;;;;;;;35.30;20.53;;;9.80;99.90;;;;;;5092458;28;20226;-75
2022/03/29 10:20:06;;;;;;;35.13;21.30;;;9.90;99.90;;;;;;5094075;28;20238;-76
2022/03/29 10:22:59;;;;;;;33.93;21.13;;;10.00;99.90;;;;;;5080664;28;20287;-77
2022/03/29 10:25:50;;;;;;;32.17;20.10;;;10.00;99.90;;;;;;5076982;28;20231;-76
2022/03/29 10:28:39;;;;;;;29.17;19.73;;;10.20;99.90;;;;;;5094784;28;20280;-80
2022/03/29 10:31:33;;;;;;;30.57;20.13;;;10.40;99.90;;;;;;5091197;28;20346;-73
2022/03/29 10:34:25;;;;;;;32.75;21.23;;;10.60;99.90;;;;;;5081840;28;20215;-70
2022/03/29 10:37:16;;;;;;;30.55;20.15;;;10.60;99.90;;;;;;5091371;28;20214;-70
2022/03/29 10:40:09;;;;;;;29.25;20.20;;;10.70;99.90;;;;;;5081166;28;20291;-70
2022/03/29 10:43:35;;;;;;;31.70;19.67;;;10.40;99.90;;;;;;5095478;28;20700;-70
2022/03/29 10:46:26;;;;;;;31.80;18.10;;;10.40;99.90;;;;;;5095669;28;20333;-69
2022/03/29 10:49:20;;;;;;;28.05;18.42;;;10.40;99.90;;;;;;5082417;28;20219;-70
2022/03/29 10:52:30;;;;;;;30.50;17.05;;;10.40;99.90;;;;;;5093894;28;20233;-69
2022/03/29 10:55:25;;;;;;;27.30;16.98;;;10.40;99.90;;;;;;5080038;28;20224;-71
2022/03/29 10:58:16;;;;;;;25.85;16.98;;;10.50;99.90;;;;;;5096573;28;20317;-71
2022/03/29 11:01:15;;;;;;;25.63;16.55;;;10.60;99.90;;;;;;5080613;28;20226;-73
2022/03/29 11:04:07;;;;;;;27.23;16.30;;;10.40;99.90;;;;;;5079653;28;20669;-72
2022/03/29 11:07:14;;;;;;;26.05;15.90;;;10.40;99.90;;;;;;5099975;27;20215;-71
2022/03/29 11:10:16;;;;;;;21.30;15.40;;;10.40;99.90;;;;;;5097080;28;20473;-70
2022/03/29 11:13:23;;;;;;;24.20;15.15;;;10.50;99.90;;;;;;5079959;28;20403;-73
2022/03/29 11:16:30;;;;;;;34.60;15.98;;;10.50;99.90;;;;;;5099031;27;20211;-72
2022/03/29 11:19:42;;;;;;;29.02;15.45;;;10.60;99.90;;;;;;5095300;28;20222;-72
2022/03/29 11:22:44;;;;;;;23.13;14.05;;;10.70;99.90;;;;;;5098622;27;20337;-72
2022/03/29 11:25:40;;;;;;;32.75;14.68;;;10.80;99.90;;;;;;5096469;27;20225;-73
2022/03/29 11:28:31;;;;;;;33.20;14.82;;;10.90;99.90;;;;;;5096363;27;20314;-71
2022/03/29 11:31:21;;;;;;;19.70;14.32;;;10.80;99.90;;;;;;5080265;28;20340;-70
2022/03/29 11:34:11;;;;;;;24.63;13.93;;;10.70;99.90;;;;;;5085969;28;20223;-70
2022/03/29 11:37:00;;;;;;;22.65;14.80;;;10.50;99.90;;;;;;5097810;28;20231;-70
2022/03/29 11:39:51;;;;;;;21.60;14.70;;;10.30;99.90;;;;;;5093614;27;20233;-70
2022/03/29 11:42:44;;;;;;;21.90;13.60;;;10.50;99.90;;;;;;5096475;28;20361;-72
2022/03/29 11:45:40;;;;;;;24.65;14.07;;;10.50;99.90;;;;;;5088241;28;20705;-73
2022/03/29 11:48:29;;;;;;;20.50;13.00;;;10.70;99.90;;;;;;5097241;28;20223;-70
2022/03/29 11:51:19;;;;;;;24.15;13.10;;;10.90;99.90;;;;;;5100196;28;20218;-71
2022/03/29 11:54:07;;;;;;;24.77;12.82;;;10.70;99.90;;;;;;5096803;28;20230;-72
2022/03/29 11:56:56;;;;;;;22.23;13.50;;;10.60;99.90;;;;;;5080675;28;20368;-70
2022/03/29 11:59:45;;;;;;;28.60;13.05;;;10.60;99.90;;;;;;5095453;27;20229;-74
2022/03/29 12:02:41;;;;;;;23.20;12.17;;;10.60;99.90;;;;;;5077308;28;20310;-73
2022/03/29 12:05:30;;;;;;;20.90;12.60;;;10.40;99.90;;;;;;5085836;28;21239;-72
2022/03/29 12:08:19;;;;;;;23.45;12.98;;;10.40;99.90;;;;;;5098529;27;20360;-71
2022/03/29 12:11:09;;;;;;;21.35;12.30;;;10.30;99.90;;;;;;5098242;27;20690;-72
2022/03/29 12:14:05;;;;;;;22.45;13.15;;;10.30;99.90;;;;;;5099906;27;20628;-71
2022/03/29 12:16:59;;;;;;;22.88;13.02;;;10.30;99.90;;;;;;5099296;27;20235;-73
2022/03/29 12:19:50;;;;;;;26.33;12.63;;;10.20;99.90;;;;;;5085699;28;20306;-72
2022/03/29 12:22:39;;;;;;;25.07;13.37;;;10.30;99.90;;;;;;5095112;28;20765;-72
2022/03/29 12:25:28;;;;;;;25.33;12.23;;;10.30;99.90;;;;;;5098734;28;20232;-72
2022/03/29 12:28:19;;;;;;;26.07;12.67;;;10.40;99.90;;;;;;5099250;27;20225;-70
2022/03/29 12:31:11;;;;;;;21.75;11.70;;;10.40;99.90;;;;;;5093331;27;20251;-71
2022/03/29 12:34:00;;;;;;;27.10;15.82;;;10.50;99.90;;;;;;5084142;28;20372;-70
2022/03/29 12:36:53;;;;;;;27.88;13.52;;;10.50;99.90;;;;;;5084638;28;20235;-70
2022/03/29 12:39:43;;;;;;;27.77;13.68;;;10.50;99.90;;;;;;5098626;27;20677;-73
2022/03/29 12:42:34;;;;;;;47.37;15.90;;;10.40;99.90;;;;;;5097655;27;20748;-70
2022/03/29 12:45:24;;;;;;;31.05;13.38;;;10.40;99.90;;;;;;5085363;28;20230;-71
2022/03/29 12:48:13;;;;;;;30.77;14.32;;;10.40;99.90;;;;;;5081893;28;20321;-71
2022/03/29 12:51:05;;;;;;;24.35;14.32;;;10.50;99.90;;;;;;5095246;27;20250;-71
2022/03/29 12:54:04;;;;;;;25.50;13.27;;;10.30;99.90;;;;;;5080714;28;20344;-72
2022/03/29 12:56:59;;;;;;;24.33;12.75;;;10.20;99.90;;;;;;5095815;27;20239;-71
2022/03/29 12:59:52;;;;;;;22.77;12.70;;;10.20;99.90;;;;;;5107466;27;20258;-72
2022/03/29 13:02:43;;;;;;;27.20;13.93;;;10.30;99.90;;;;;;5095346;28;20218;-72
2022/03/29 13:05:34;;;;;;;23.38;13.88;;;10.30;99.90;;;;;;5093756;28;20578;-74
2022/03/29 13:08:24;;;;;;;33.58;15.23;;;10.30;99.90;;;;;;5095221;28;20212;-74
2022/03/29 13:11:19;;;;;;;21.23;13.48;;;10.30;99.90;;;;;;5097349;28;20238;-73
2022/03/29 13:14:12;;;;;;;28.13;13.73;;;10.30;99.90;;;;;;5091915;27;20242;-73
2022/03/29 13:17:00;;;;;;;31.37;13.03;;;10.10;99.90;;;;;;5097989;28;20217;-74
2022/03/29 13:19:53;;;;;;;30.73;12.87;;;10.10;99.90;;;;;;5090520;28;20320;-73
2022/03/29 13:22:45;;;;;;;23.53;12.40;;;10.10;99.90;;;;;;5095635;27;20230;-73
2022/03/29 13:25:39;;;;;;;22.73;13.53;;;10.10;99.90;;;;;;5095467;27;20230;-73
2022/03/29 13:28:30;;;;;;;22.93;13.13;;;10.10;99.90;;;;;;5080162;28;20230;-71
2022/03/29 13:31:19;;;;;;;22.47;12.30;;;10.00;99.90;;;;;;5081378;28;20382;-73
2022/03/29 13:34:09;;;;;;;21.90;13.03;;;10.00;99.90;;;;;;5097134;28;20217;-73
2022/03/29 13:36:59;;;;;;;24.93;12.80;;;10.10;99.90;;;;;;5099098;28;20419;-73
2022/03/29 13:39:48;;;;;;;24.60;13.97;;;10.00;99.90;;;;;;5102155;28;20227;-73
2022/03/29 13:42:37;;;;;;;25.53;13.90;;;9.90;99.90;;;;;;5098485;28;20235;-80
2022/03/29 13:45:27;;;;;;;27.33;14.57;;;9.90;99.90;;;;;;5096659;28;20228;-78
2022/03/29 13:48:16;;;;;;;28.70;13.70;;;9.90;99.90;;;;;;5082429;28;20569;-75
2022/03/29 13:51:07;;;;;;;35.13;13.73;;;9.90;99.90;;;;;;5093849;28;20233;-78
2022/03/29 13:53:56;;;;;;;23.13;12.67;;;9.90;99.90;;;;;;5081298;28;20230;-78
2022/03/29 13:56:44;;;;;;;23.87;13.97;;;9.80;99.90;;;;;;5105666;27;20305;-80
2022/03/29 13:59:33;;;;;;;26.30;13.77;;;9.80;99.90;;;;;;5095265;28;20854;-80
2022/03/29 14:02:24;;;;;;;25.93;14.50;;;9.70;99.90;;;;;;5094172;28;20218;-81
2022/03/29 14:05:13;;;;;;;25.20;13.90;;;9.70;99.90;;;;;;5094532;28;20258;-77
2022/03/29 14:08:02;;;;;;;26.23;14.47;;;9.80;99.90;;;;;;5101630;28;21463;-73
2022/03/29 14:10:52;;;;;;;28.73;14.57;;;9.90;99.90;;;;;;5092914;28;20776;-76
2022/03/29 14:13:42;;;;;;;29.03;14.33;;;9.80;99.90;;;;;;5094510;28;20233;-74
2022/03/29 14:16:31;;;;;;;24.63;14.07;;;9.80;99.90;;;;;;5095495;28;20811;-78
2022/03/29 14:19:21;;;;;;;27.33;13.77;;;9.90;99.90;;;;;;5081785;28;20232;-74
2022/03/29 14:22:16;;;;;;;25.17;14.37;;;9.80;99.90;;;;;;5059469;28;20254;-76
2022/03/29 14:25:06;;;;;;;26.10;15.20;;;9.80;99.90;;;;;;5073332;28;21390;-74
2022/03/29 14:27:55;;;;;;;24.97;15.20;;;9.80;99.90;;;;;;5073224;28;20237;-73
2022/03/29 14:30:45;;;;;;;25.87;16.33;;;10.00;99.90;;;;;;5073614;28;20851;-75
2022/03/29 14:33:34;;;;;;;27.47;15.97;;;9.90;99.90;;;;;;5072078;28;20232;-73
2022/03/29 14:36:25;;;;;;;27.70;15.93;;;9.80;99.90;;;;;;5075718;28;20596;-75
2022/03/29 14:39:15;;;;;;;35.07;16.70;;;9.80;99.90;;;;;;5075775;28;20213;-81
2022/03/29 14:42:04;;;;;;;32.27;16.43;;;9.90;99.90;;;;;;5074076;28;20747;-81
2022/03/29 14:44:54;;;;;;;37.70;17.10;;;10.00;99.90;;;;;;5071566;28;20220;-78
2022/03/29 14:47:44;;;;;;;23.33;15.00;;;10.00;99.90;;;;;;5078830;28;20226;-78
2022/03/29 14:50:33;;;;;;;31.93;15.50;;;9.90;99.90;;;;;;5069643;28;20231;-79